Lake Leelanau, Michigan
Current Conditions -  °F | °C
As of 4:53 AM on Saturday 22 Nov 2014 (Local Time) from KTVC Reporting Station
Overcast Overcast  
Wind Chill: -4°   Ceiling: 1900
Heat Index:   Visibility: 10mi
Dew Point: -4°   Wind: 9mph
Humidity: 70%   Direction: 190°S
Pressure: 29.95"   Gusts: NA
Location:  44.98°N, 85.71°W
Report Text: KTVC 220953Z AUTO 19008KT 170V230 10SM OVC019 01/M04 A2995 RMK AO2 SLP149 T00061044
Loading
Personal Weather Stations






























Interactive Weather Map New forecast layout! Learn more

10-Day Weather Forecast

Advertisements
Track Severe Weather on mobile